Weather at Hellenic Sport Aviation Airstrip

Public forecast

Using degrees Celsius for public forecast. Weather courtesy of forecast.io.

Closest aviation weather report (METAR) to Hellenic Sport Aviation Airstrip

Closest report is Tanagra Air Base, 20.8 nm (38.5 km) ESE.

2024/07/13 21:50 (retrieved 16 minutes ago)

LGTG 132150Z 29005KT CAVOK 26/11 Q1011 BLU

Closest aviation forecast (TAF) to Hellenic Sport Aviation Airstrip

Closest forecast is Elefsis Air Base, 31.1 nm (57.6 km) SE.

2024/07/13 18:13 (retrieved 4 hours ago)

TAF LGEL 131700Z 1318/1418 36010KT CAVOK